createdAt,value
2023-01-17T00:02:33.620Z,96658.81
2023-01-17T00:07:54.827Z,96655.63
2023-01-17T00:13:02.307Z,96642.94
2023-01-17T00:18:04.106Z,96645.91
2023-01-17T00:23:26.524Z,96644.59
2023-01-17T00:28:28.633Z,96645.69
2023-01-17T00:33:30.303Z,96644.44
2023-01-17T00:38:33.950Z,96642.25
2023-01-17T00:43:54.639Z,96650.50
2023-01-17T00:49:14.902Z,96647.00
2023-01-17T00:54:36.414Z,96654.91
2023-01-17T00:59:56.599Z,96658.22
2023-01-17T01:05:16.807Z,96655.84
2023-01-17T01:10:37.183Z,96660.75
2023-01-17T01:15:57.373Z,96655.31
2023-01-17T01:21:21.462Z,96653.88
2023-01-17T01:26:41.829Z,96666.22
2023-01-17T01:32:02.105Z,96659.34
2023-01-17T01:37:03.746Z,96657.22
2023-01-17T01:42:15.254Z,96656.84
2023-01-17T01:47:30.549Z,96661.84
2023-01-17T01:52:35.184Z,96650.03
2023-01-17T01:57:49.160Z,96646.31
2023-01-17T02:02:53.645Z,96646.13
2023-01-17T02:08:02.437Z,96649.69
2023-01-17T02:13:05.446Z,96651.44
2023-01-17T02:18:49.690Z,96654.22
2023-01-17T02:24:12.414Z,96662.13
2023-01-17T02:29:50.834Z,96656.44
2023-01-17T02:35:15.930Z,96661.53
2023-01-17T02:40:26.746Z,96664.53
2023-01-17T02:45:29.161Z,96671.41
2023-01-17T02:50:56.654Z,96679.66
2023-01-17T02:56:13.489Z,96683.91
2023-01-17T03:01:41.951Z,96697.22
2023-01-17T03:06:54.138Z,96712.06
2023-01-17T03:11:56.072Z,96706.00
2023-01-17T03:16:57.831Z,96705.72
2023-01-17T03:21:59.501Z,96713.47
2023-01-17T03:27:01.204Z,96733.25
2023-01-17T03:32:04.321Z,96725.09
2023-01-17T03:37:05.973Z,96740.91
2023-01-17T03:42:07.774Z,96737.75
2023-01-17T03:47:12.165Z,96740.81
2023-01-17T03:52:14.021Z,96747.41
2023-01-17T03:57:15.791Z,96753.50
2023-01-17T04:02:17.524Z,96758.91
2023-01-17T04:07:19.214Z,96756.75
2023-01-17T04:12:20.918Z,96779.44
2023-01-17T04:17:22.631Z,96780.09
2023-01-17T04:22:24.414Z,96768.03
2023-01-17T04:27:26.232Z,96791.28
2023-01-17T04:32:29.297Z,96791.72
2023-01-17T04:37:31.013Z,96790.69
2023-01-17T04:42:32.719Z,96808.56
2023-01-17T04:47:34.648Z,96818.31
2023-01-17T04:52:36.814Z,96828.63
2023-01-17T04:57:38.571Z,96845.84
2023-01-17T05:02:40.500Z,96844.81
2023-01-17T05:07:42.186Z,96860.97
2023-01-17T05:12:43.813Z,96871.31
2023-01-17T05:17:45.439Z,96864.22
2023-01-17T05:22:55.497Z,96875.09
2023-01-17T05:27:59.952Z,96876.63
2023-01-17T05:33:02.034Z,96876.78
2023-01-17T05:38:04.274Z,96884.22
2023-01-17T05:43:06.641Z,96885.59
2023-01-17T05:48:09.426Z,96898.06
2023-01-17T05:53:13.763Z,96896.69
2023-01-17T05:58:19.122Z,96909.69
2023-01-17T06:03:20.890Z,96906.06
2023-01-17T06:08:23.535Z,96909.03
2023-01-17T06:13:25.228Z,96913.56
2023-01-17T06:18:26.930Z,96920.47
2023-01-17T06:23:28.702Z,96915.88
2023-01-17T06:28:30.562Z,96924.22
2023-01-17T06:33:32.267Z,96926.66
2023-01-17T06:38:34.543Z,96929.16
2023-01-17T06:43:36.192Z,96945.31
2023-01-17T06:48:37.961Z,96951.69
2023-01-17T06:53:40.313Z,96955.69
2023-01-17T06:58:42.263Z,96966.81
2023-01-17T07:03:44.317Z,96981.72
2023-01-17T07:08:47.509Z,96981.59
2023-01-17T07:13:49.764Z,96995.00
2023-01-17T07:18:51.893Z,97000.88
2023-01-17T07:23:53.548Z,97001.53
2023-01-17T07:28:55.191Z,97001.88
2023-01-17T07:33:56.903Z,97004.44
2023-01-17T07:38:58.574Z,96995.81
2023-01-17T07:44:00.330Z,97008.91
2023-01-17T07:49:02.411Z,97008.38
2023-01-17T07:54:04.320Z,97005.13
2023-01-17T07:59:06.482Z,97020.19
2023-01-17T08:04:09.324Z,97011.59
2023-01-17T08:09:11.186Z,97020.13
2023-01-17T08:14:12.951Z,97014.41
2023-01-17T08:19:15.224Z,97016.50
2023-01-17T08:24:17.030Z,97033.06
2023-01-17T08:29:18.656Z,97041.69
2023-01-17T08:34:20.440Z,97055.97
2023-01-17T08:39:22.317Z,97055.09
2023-01-17T08:44:23.959Z,97070.28
2023-01-17T08:49:26.275Z,97070.44
2023-01-17T08:54:29.035Z,97073.38
2023-01-17T08:59:30.739Z,97086.00
2023-01-17T09:04:32.508Z,97076.53
2023-01-17T09:09:34.266Z,97079.88
2023-01-17T09:14:37.240Z,97096.56
2023-01-17T09:19:42.427Z,97107.53
2023-01-17T09:24:44.116Z,97109.22
2023-01-17T09:29:45.741Z,97111.34
2023-01-17T09:34:47.456Z,97131.03
2023-01-17T09:39:49.758Z,97117.13
2023-01-17T09:44:52.475Z,97129.38
2023-01-17T09:49:59.544Z,97139.19
2023-01-17T09:55:01.901Z,97138.28
2023-01-17T10:00:26.036Z,97150.88
2023-01-17T10:05:45.868Z,97148.34
2023-01-17T10:10:58.446Z,97145.84
2023-01-17T10:16:28.325Z,97154.06
2023-01-17T10:22:15.492Z,97155.09
2023-01-17T10:27:28.076Z,97149.19
2023-01-17T10:32:33.834Z,97161.78
2023-01-17T10:37:40.989Z,97156.25
2023-01-17T10:43:05.833Z,97169.75
2023-01-17T10:48:41.609Z,97172.44
2023-01-17T10:54:00.005Z,97179.56
2023-01-17T10:59:11.848Z,97177.22
2023-01-17T11:04:23.745Z,97185.38
2023-01-17T11:09:38.727Z,97187.66
2023-01-17T11:14:40.437Z,97186.47
2023-01-17T11:19:45.495Z,97183.66
2023-01-17T11:24:54.936Z,97174.47
2023-01-17T11:30:05.507Z,97177.59
2023-01-17T11:35:18.997Z,97183.09
2023-01-17T11:40:40.024Z,97176.50
2023-01-17T11:45:41.846Z,97172.78
2023-01-17T11:51:00.170Z,97168.19
2023-01-17T11:56:31.150Z,97167.75
2023-01-17T12:01:45.603Z,97173.88
2023-01-17T12:07:05.008Z,97175.94
2023-01-17T12:12:47.304Z,97172.78
2023-01-17T12:18:18.010Z,97172.22
2023-01-17T12:23:34.611Z,97178.19
2023-01-17T12:29:14.667Z,97185.28
2023-01-17T12:34:55.364Z,97177.97
2023-01-17T12:40:04.556Z,97198.31
2023-01-17T12:45:20.224Z,97196.50
2023-01-17T12:50:21.978Z,97200.31
2023-01-17T12:55:58.961Z,97197.88
2023-01-17T13:01:26.054Z,97193.13
2023-01-17T13:07:08.767Z,97191.38
2023-01-17T13:12:17.779Z,97191.53
2023-01-17T13:17:48.882Z,97197.31
2023-01-17T13:22:51.623Z,97199.81
2023-01-17T13:28:06.132Z,97209.22
2023-01-17T13:33:32.051Z,97215.53
2023-01-17T13:38:54.974Z,97226.84
2023-01-17T13:44:18.389Z,97238.44
2023-01-17T13:49:23.472Z,97234.03
2023-01-17T13:54:32.961Z,97239.75
2023-01-17T13:59:35.867Z,97238.13
2023-01-17T14:05:05.601Z,97241.97
2023-01-17T14:10:40.885Z,97246.13
2023-01-17T14:15:50.034Z,97234.81
2023-01-17T14:21:21.553Z,97241.25
2023-01-17T14:26:31.071Z,97246.63
2023-01-17T14:31:33.323Z,97247.88
2023-01-17T14:36:35.127Z,97241.84
2023-01-17T14:41:37.555Z,97233.44
2023-01-17T14:46:39.283Z,97241.44
2023-01-17T14:51:41.015Z,97255.44
2023-01-17T14:56:42.733Z,97250.88
2023-01-17T15:02:06.013Z,97263.25
2023-01-17T15:07:16.150Z,97265.72
2023-01-17T15:12:19.503Z,97264.72
2023-01-17T15:17:26.302Z,97264.81
2023-01-17T15:22:29.849Z,97264.94
2023-01-17T15:27:32.234Z,97262.91
2023-01-17T15:32:34.210Z,97261.72
2023-01-17T15:37:40.580Z,97262.22
2023-01-17T15:42:52.124Z,97277.09
2023-01-17T15:47:53.941Z,97274.03
2023-01-17T15:52:59.186Z,97283.16
2023-01-17T15:58:01.524Z,97297.97
2023-01-17T16:03:21.922Z,97289.25
2023-01-17T16:08:33.193Z,97278.91
2023-01-17T16:13:42.303Z,97293.38
2023-01-17T16:18:44.784Z,97290.50
2023-01-17T16:23:47.286Z,97297.50
2023-01-17T16:28:50.040Z,97280.38
2023-01-17T16:33:51.941Z,97280.78
2023-01-17T16:38:53.730Z,97279.13
2023-01-17T16:44:06.179Z,97277.47
2023-01-17T16:49:08.339Z,97279.47
2023-01-17T16:54:10.084Z,97275.06
2023-01-17T16:59:11.883Z,97266.59
2023-01-17T17:04:13.635Z,97263.06
2023-01-17T17:09:15.515Z,97264.25
2023-01-17T17:14:17.426Z,97267.41
2023-01-17T17:19:20.049Z,97263.97
2023-01-17T17:24:21.840Z,97259.16
2023-01-17T17:29:23.635Z,97269.25
2023-01-17T17:34:27.658Z,97273.78
2023-01-17T17:39:29.340Z,97286.06
2023-01-17T17:44:31.008Z,97287.69
2023-01-17T17:49:32.799Z,97274.69
2023-01-17T17:54:35.370Z,97274.03
2023-01-17T17:59:37.197Z,97277.19
2023-01-17T18:04:39.092Z,97284.91
2023-01-17T18:09:40.842Z,97289.03
2023-01-17T18:14:42.666Z,97284.34
2023-01-17T18:19:46.080Z,97285.59
2023-01-17T18:24:47.971Z,97291.59
2023-01-17T18:29:49.966Z,97288.28
2023-01-17T18:34:51.650Z,97286.75
2023-01-17T18:39:53.317Z,97275.81
2023-01-17T18:44:56.747Z,97291.84
2023-01-17T18:49:58.705Z,97301.88
2023-01-17T18:55:00.406Z,97294.31
2023-01-17T19:00:02.874Z,97298.13
2023-01-17T19:05:08.434Z,97300.31
2023-01-17T19:10:10.523Z,97306.66
2023-01-17T19:15:12.189Z,97299.97
2023-01-17T19:20:14.064Z,97301.88
2023-01-17T19:25:15.857Z,97306.59
2023-01-17T19:30:19.491Z,97319.72
2023-01-17T19:35:22.734Z,97319.03
2023-01-17T19:40:25.754Z,97325.91
2023-01-17T19:45:27.827Z,97324.56
2023-01-17T19:50:29.684Z,97322.16
2023-01-17T19:55:31.463Z,97329.66
2023-01-17T20:00:45.933Z,97328.63
2023-01-17T20:05:56.596Z,97337.97
2023-01-17T20:11:02.957Z,97337.59
2023-01-17T20:16:06.835Z,97361.16
2023-01-17T20:21:12.414Z,97348.31
2023-01-17T20:26:16.247Z,97366.88
2023-01-17T20:31:23.648Z,97365.97
2023-01-17T20:36:26.793Z,97381.06
2023-01-17T20:41:37.085Z,97379.84
2023-01-17T20:46:41.110Z,97375.47
2023-01-17T20:51:44.471Z,97384.94
2023-01-17T20:56:49.760Z,97385.50
2023-01-17T21:01:51.847Z,97377.69
2023-01-17T21:06:53.727Z,97370.84
2023-01-17T21:12:00.997Z,97377.00
2023-01-17T21:17:02.773Z,97369.25
2023-01-17T21:22:05.493Z,97378.59
2023-01-17T21:27:07.171Z,97380.75
2023-01-17T21:32:08.869Z,97379.84
2023-01-17T21:37:10.567Z,97378.81
2023-01-17T21:42:12.253Z,97368.88
2023-01-17T21:47:13.980Z,97376.81
2023-01-17T21:52:18.481Z,97376.88
2023-01-17T21:57:40.498Z,97374.72
2023-01-17T22:02:46.978Z,97360.59
2023-01-17T22:08:07.108Z,97359.44
2023-01-17T22:13:08.789Z,97346.78
2023-01-17T22:18:11.058Z,97329.66
2023-01-17T22:23:12.757Z,97326.63
2023-01-17T22:28:14.743Z,97338.78
2023-01-17T22:33:16.389Z,97326.03
2023-01-17T22:38:18.149Z,97329.25
2023-01-17T22:43:19.841Z,97319.91
2023-01-17T22:48:21.722Z,97312.00
2023-01-17T22:53:23.707Z,97313.56
2023-01-17T22:58:27.373Z,97308.41
2023-01-17T23:03:29.091Z,97296.81
2023-01-17T23:08:30.782Z,97296.72
2023-01-17T23:13:32.474Z,97280.50
2023-01-17T23:18:52.723Z,97268.19
2023-01-17T23:23:54.346Z,97261.06
2023-01-17T23:28:56.114Z,97261.06
2023-01-17T23:33:57.782Z,97270.59
2023-01-17T23:38:59.460Z,97267.50
2023-01-17T23:44:01.125Z,97277.16
2023-01-17T23:49:02.741Z,97281.59
2023-01-17T23:54:05.415Z,97270.03
2023-01-17T23:59:07.233Z,97272.53
